createdAt,value
2018-04-13T00:00:48.345Z,2.43
2018-04-13T00:03:16.663Z,2.57
2018-04-13T00:05:44.223Z,2.20
2018-04-13T00:08:11.811Z,1.77
2018-04-13T00:10:39.383Z,2.83
2018-04-13T00:13:07.031Z,2.80
2018-04-13T00:15:34.646Z,2.17
2018-04-13T00:18:02.202Z,2.23
2018-04-13T00:20:29.768Z,2.40
2018-04-13T00:22:58.608Z,2.27
2018-04-13T00:25:26.206Z,2.10
2018-04-13T00:27:53.793Z,2.37
2018-04-13T00:30:21.325Z,2.67
2018-04-13T00:32:48.891Z,2.40
2018-04-13T00:35:16.476Z,2.00
2018-04-13T00:37:44.057Z,1.83
2018-04-13T00:40:11.616Z,1.70
2018-04-13T00:42:39.164Z,2.03
2018-04-13T00:45:06.727Z,2.27
2018-04-13T00:47:35.154Z,2.73
2018-04-13T00:50:02.744Z,2.30
2018-04-13T00:52:31.069Z,1.90
2018-04-13T00:54:59.006Z,1.77
2018-04-13T00:57:28.775Z,2.60
2018-04-13T00:59:58.006Z,1.90
2018-04-13T01:02:27.085Z,2.50
2018-04-13T01:04:55.421Z,2.20
2018-04-13T01:07:22.956Z,2.60
2018-04-13T01:09:51.359Z,3.27
2018-04-13T01:12:18.910Z,2.43
2018-04-13T01:14:46.431Z,3.60
2018-04-13T01:17:14.002Z,3.47
2018-04-13T01:19:41.530Z,2.30
2018-04-13T01:22:09.405Z,2.80
2018-04-13T01:24:36.953Z,2.67
2018-04-13T01:27:04.502Z,3.30
2018-04-13T01:29:32.090Z,2.63
2018-04-13T01:32:00.690Z,2.17
2018-04-13T01:34:29.042Z,2.93
2018-04-13T01:36:57.036Z,2.20
2018-04-13T01:39:24.616Z,2.33
2018-04-13T01:41:52.192Z,2.80
2018-04-13T01:44:19.737Z,2.30
2018-04-13T01:46:47.588Z,2.27
2018-04-13T01:49:15.206Z,2.27
2018-04-13T01:51:42.758Z,2.30
2018-04-13T01:54:10.330Z,1.93
2018-04-13T01:56:37.876Z,2.43
2018-04-13T01:59:05.474Z,2.40
2018-04-13T02:01:33.055Z,2.40
2018-04-13T02:04:00.631Z,2.30
2018-04-13T02:06:29.149Z,2.30
2018-04-13T02:08:57.415Z,2.47
2018-04-13T02:11:25.603Z,2.70
2018-04-13T02:13:54.228Z,2.60
2018-04-13T02:16:21.772Z,3.03
2018-04-13T02:18:50.245Z,2.60
2018-04-13T02:21:17.822Z,2.83
2018-04-13T02:23:45.562Z,2.47
2018-04-13T02:26:13.898Z,2.53
2018-04-13T02:28:41.458Z,2.40
2018-04-13T02:31:09.046Z,2.90
2018-04-13T02:33:36.599Z,2.57
2018-04-13T02:36:04.164Z,2.20
2018-04-13T02:38:31.737Z,1.90
2018-04-13T02:40:59.277Z,1.77
2018-04-13T02:43:27.914Z,2.10
2018-04-13T02:45:55.444Z,2.20
2018-04-13T02:48:23.026Z,2.90
2018-04-13T02:50:50.604Z,5.43
2018-04-13T02:53:18.537Z,3.43
2018-04-13T02:55:46.859Z,2.50
2018-04-13T02:58:14.414Z,2.37
2018-04-13T03:00:42.041Z,2.43
2018-04-13T03:03:09.620Z,2.23
2018-04-13T03:05:37.165Z,2.10
2018-04-13T03:08:04.753Z,2.70
2018-04-13T03:10:32.367Z,2.57
2018-04-13T03:13:00.723Z,2.83
2018-04-13T03:15:29.147Z,2.57
2018-04-13T03:17:57.274Z,2.37
2018-04-13T03:20:24.995Z,2.30
2018-04-13T03:22:52.603Z,3.40
2018-04-13T03:25:20.165Z,3.23
2018-04-13T03:27:47.731Z,2.20
2018-04-13T03:30:16.090Z,2.07
2018-04-13T03:32:43.634Z,2.57
2018-04-13T03:35:12.109Z,2.43
2018-04-13T03:37:39.654Z,2.57
2018-04-13T03:40:07.213Z,3.03
2018-04-13T03:42:34.806Z,2.83
2018-04-13T03:45:03.153Z,2.03
2018-04-13T03:47:31.539Z,4.27
2018-04-13T03:49:59.101Z,6.50
2018-04-13T03:52:26.996Z,9.77
2018-04-13T03:54:55.353Z,2.77
2018-04-13T03:57:23.731Z,4.63
2018-04-13T03:59:52.091Z,2.37
2018-04-13T04:02:20.452Z,2.83
2018-04-13T04:04:48.821Z,4.00
2018-04-13T04:07:17.566Z,2.80
2018-04-13T04:09:45.095Z,3.03
2018-04-13T04:12:12.718Z,2.70
2018-04-13T04:14:40.612Z,2.60
2018-04-13T04:17:08.950Z,3.30
2018-04-13T04:19:48.482Z,2.40
2018-04-13T04:22:27.842Z,2.77
2018-04-13T04:25:07.176Z,2.37
2018-04-13T04:27:35.341Z,3.40
2018-04-13T04:30:03.085Z,3.13
2018-04-13T04:32:30.657Z,4.00
2018-04-13T04:34:58.223Z,3.70
2018-04-13T04:37:25.844Z,3.40
2018-04-13T04:39:53.394Z,3.57
2018-04-13T04:42:20.982Z,3.60
2018-04-13T04:44:48.602Z,2.80
2018-04-13T04:47:16.951Z,2.97
2018-04-13T04:49:45.271Z,17.90
2018-04-13T04:52:12.862Z,6.03
2018-04-13T04:54:40.483Z,3.73
2018-04-13T04:57:08.841Z,2.70
2018-04-13T04:59:37.308Z,2.93
2018-04-13T05:02:06.606Z,3.80
2018-04-13T05:04:34.598Z,3.63
2018-04-13T05:07:02.166Z,3.07
2018-04-13T05:09:30.534Z,2.93
2018-04-13T05:11:59.891Z,3.20
2018-04-13T05:14:27.483Z,3.53
2018-04-13T05:16:55.162Z,2.93
2018-04-13T05:19:23.547Z,3.10
2018-04-13T05:21:51.170Z,3.50
2018-04-13T05:24:18.850Z,3.20
2018-04-13T05:26:47.173Z,3.73
2018-04-13T05:29:14.748Z,3.53
2018-04-13T05:31:43.146Z,3.80
2018-04-13T05:34:10.733Z,2.70
2018-04-13T05:36:38.403Z,2.80
2018-04-13T05:39:06.566Z,2.37
2018-04-13T05:41:34.432Z,3.10
2018-04-13T05:44:02.805Z,3.30
2018-04-13T05:46:30.416Z,3.40
2018-04-13T05:48:57.980Z,2.77
2018-04-13T05:51:25.606Z,2.40
2018-04-13T05:53:53.215Z,2.57
2018-04-13T05:56:21.520Z,3.43
2018-04-13T05:58:49.113Z,3.20
2018-04-13T06:01:16.690Z,3.17
2018-04-13T06:03:44.482Z,2.60
2018-04-13T06:06:12.147Z,2.00
2018-04-13T06:08:39.746Z,2.17
2018-04-13T06:11:07.320Z,2.50
2018-04-13T06:13:36.549Z,1.53
2018-04-13T06:16:04.463Z,1.93
2018-04-13T06:18:32.062Z,1.27
2018-04-13T06:20:59.611Z,1.73
2018-04-13T06:23:27.256Z,2.37
2018-04-13T06:25:55.805Z,1.77
2018-04-13T06:28:23.367Z,2.43
2018-04-13T06:30:50.953Z,1.40
2018-04-13T06:33:18.538Z,1.63
2018-04-13T06:35:46.256Z,1.70
2018-04-13T06:38:14.199Z,2.70
2018-04-13T06:40:41.783Z,2.40
2018-04-13T06:43:09.430Z,1.30
2018-04-13T06:45:37.000Z,1.50
2018-04-13T06:48:05.700Z,1.80
2018-04-13T06:50:33.353Z,1.57
2018-04-13T06:53:00.931Z,1.20
2018-04-13T06:55:29.294Z,0.90
2018-04-13T06:57:57.710Z,1.07
2018-04-13T07:00:25.325Z,1.20
2018-04-13T07:02:53.036Z,1.20
2018-04-13T07:05:21.430Z,1.50
2018-04-13T07:07:49.244Z,1.23
2018-04-13T07:10:17.602Z,1.40
2018-04-13T07:12:46.157Z,1.93
2018-04-13T07:15:14.552Z,1.20
2018-04-13T07:17:42.205Z,1.17
2018-04-13T07:20:09.803Z,1.10
2018-04-13T07:22:37.428Z,0.97
2018-04-13T07:25:05.728Z,1.10
2018-04-13T07:27:33.484Z,1.00
2018-04-13T07:30:01.043Z,0.73
2018-04-13T07:32:28.601Z,1.00
2018-04-13T07:34:56.975Z,1.70
2018-04-13T07:37:25.420Z,1.47
2018-04-13T07:39:53.736Z,1.00
2018-04-13T07:42:21.332Z,0.80
2018-04-13T07:44:48.967Z,1.93
2018-04-13T07:47:16.939Z,1.00
2018-04-13T07:49:44.537Z,1.27
2018-04-13T07:52:12.157Z,1.20
2018-04-13T07:54:39.839Z,1.57
2018-04-13T07:57:08.189Z,1.30
2018-04-13T07:59:36.705Z,1.40
2018-04-13T08:02:04.937Z,1.33
2018-04-13T08:04:32.487Z,0.90
2018-04-13T08:07:00.033Z,1.37
2018-04-13T08:09:27.809Z,1.40
2018-04-13T08:11:55.395Z,1.70
2018-04-13T08:14:23.710Z,1.40
2018-04-13T08:16:51.359Z,0.90
2018-04-13T08:19:18.933Z,1.10
2018-04-13T08:21:46.708Z,1.10
2018-04-13T08:24:14.426Z,1.40
2018-04-13T08:26:42.750Z,1.23
2018-04-13T08:29:10.372Z,1.07
2018-04-13T08:31:38.175Z,1.50
2018-04-13T08:34:06.625Z,1.30
2018-04-13T08:36:35.758Z,1.30
2018-04-13T08:39:03.390Z,5.23
2018-04-13T08:41:31.014Z,4.07
2018-04-13T08:43:58.654Z,1.00
2018-04-13T08:46:26.397Z,1.70
2018-04-13T08:48:54.120Z,1.73
2018-04-13T08:51:22.561Z,1.40
2018-04-13T08:53:50.153Z,1.43
2018-04-13T08:56:17.740Z,1.27
2018-04-13T08:58:46.092Z,0.97
2018-04-13T09:01:13.733Z,1.87
2018-04-13T09:03:41.603Z,1.40
2018-04-13T09:06:10.017Z,1.50
2018-04-13T09:08:37.571Z,1.57
2018-04-13T09:11:05.770Z,1.50
2018-04-13T09:13:33.351Z,1.47
2018-04-13T09:16:00.943Z,0.90
2018-04-13T09:18:29.304Z,1.33
2018-04-13T09:20:56.882Z,1.87
2018-04-13T09:23:26.838Z,1.57
2018-04-13T09:25:54.383Z,1.17
2018-04-13T09:28:22.742Z,1.23
2018-04-13T09:30:50.341Z,1.30
2018-04-13T09:33:17.951Z,0.97
2018-04-13T09:35:46.825Z,2.10
2018-04-13T09:38:15.165Z,1.10
2018-04-13T09:40:42.798Z,1.70
2018-04-13T09:43:10.425Z,1.00
2018-04-13T09:45:38.004Z,1.30
2018-04-13T09:48:06.700Z,0.90
2018-04-13T09:50:35.570Z,1.60
2018-04-13T09:53:04.420Z,1.20
2018-04-13T09:55:32.327Z,1.70
2018-04-13T09:58:00.028Z,1.27
2018-04-13T10:00:30.621Z,1.57
2018-04-13T10:03:18.942Z,1.40
2018-04-13T10:05:46.914Z,1.60
2018-04-13T10:08:14.714Z,1.97
2018-04-13T10:10:42.314Z,1.83
2018-04-13T10:13:10.018Z,1.40
2018-04-13T10:15:38.334Z,1.27
2018-04-13T10:18:05.900Z,0.90
2018-04-13T10:20:33.506Z,1.73
2018-04-13T10:23:01.072Z,1.53
2018-04-13T10:25:29.511Z,0.70
2018-04-13T10:27:57.094Z,1.30
2018-04-13T10:30:24.673Z,0.60
2018-04-13T10:32:53.029Z,0.70
2018-04-13T10:35:20.973Z,0.70
2018-04-13T10:37:48.620Z,1.90
2018-04-13T10:40:16.262Z,1.60
2018-04-13T10:42:44.040Z,0.97
2018-04-13T10:45:11.587Z,1.50
2018-04-13T10:47:39.280Z,0.90
2018-04-13T10:50:07.253Z,2.40
2018-04-13T10:52:34.812Z,1.30
2018-04-13T10:55:02.627Z,1.50
2018-04-13T10:57:31.036Z,1.50
2018-04-13T10:59:58.581Z,1.67
2018-04-13T11:02:26.529Z,2.37
2018-04-13T11:04:54.849Z,1.80
2018-04-13T11:07:22.404Z,2.07
2018-04-13T11:09:50.007Z,2.30
2018-04-13T11:12:18.349Z,2.70
2018-04-13T11:14:45.985Z,2.13
2018-04-13T11:17:13.754Z,5.30
2018-04-13T11:19:41.672Z,2.40
2018-04-13T11:22:09.999Z,2.60
2018-04-13T11:24:37.579Z,2.30
2018-04-13T11:27:05.500Z,3.00
2018-04-13T11:29:33.085Z,3.73
2018-04-13T11:32:00.653Z,3.60
2018-04-13T11:34:29.026Z,3.77
2018-04-13T11:36:56.616Z,3.90
2018-04-13T11:39:24.257Z,3.50
2018-04-13T11:41:51.828Z,3.33
2018-04-13T11:44:19.422Z,2.80
2018-04-13T11:46:47.755Z,3.00
2018-04-13T11:49:15.285Z,3.07
2018-04-13T11:51:42.950Z,3.47
2018-04-13T11:54:10.522Z,3.50
2018-04-13T11:56:38.175Z,2.87
2018-04-13T11:59:05.743Z,3.60
2018-04-13T12:01:33.381Z,4.63
2018-04-13T12:04:00.927Z,3.70
2018-04-13T12:06:28.523Z,4.63
2018-04-13T12:08:56.132Z,5.43
2018-04-13T12:11:23.713Z,3.50
2018-04-13T12:13:51.242Z,3.43
2018-04-13T12:16:19.640Z,2.30
2018-04-13T12:18:47.175Z,2.00
2018-04-13T12:21:15.494Z,2.73
2018-04-13T12:23:43.072Z,2.70
2018-04-13T12:26:10.699Z,2.20
2018-04-13T12:28:39.259Z,2.40
2018-04-13T12:31:07.614Z,2.43
2018-04-13T12:33:35.177Z,2.13
2018-04-13T12:36:03.556Z,2.30
2018-04-13T12:38:31.982Z,2.57
2018-04-13T12:40:59.575Z,3.20
2018-04-13T12:43:27.129Z,2.90
2018-04-13T12:45:54.755Z,1.90
2018-04-13T12:48:22.437Z,2.83
2018-04-13T12:50:49.973Z,2.67
2018-04-13T12:53:17.528Z,2.60
2018-04-13T12:55:45.093Z,2.20
2018-04-13T12:58:12.649Z,2.70
2018-04-13T13:00:40.349Z,2.30
2018-04-13T13:03:07.947Z,2.30
2018-04-13T13:05:35.536Z,1.83
2018-04-13T13:08:03.111Z,1.50
2018-04-13T13:10:30.657Z,2.10
2018-04-13T13:12:58.219Z,1.83
2018-04-13T13:15:25.770Z,1.63
2018-04-13T13:17:53.424Z,2.03
2018-04-13T13:20:21.840Z,1.83
2018-04-13T13:22:49.428Z,2.23
2018-04-13T13:25:17.806Z,3.00
2018-04-13T13:27:46.145Z,1.90
2018-04-13T13:30:13.695Z,1.80
2018-04-13T13:32:42.096Z,1.80
2018-04-13T13:35:09.661Z,1.70
2018-04-13T13:37:38.041Z,1.70
2018-04-13T13:40:06.379Z,2.13
2018-04-13T13:42:33.986Z,1.80
2018-04-13T13:45:02.458Z,2.00
2018-04-13T13:47:30.857Z,2.17
2018-04-13T13:49:58.473Z,2.00
2018-04-13T13:52:26.001Z,1.67
2018-04-13T13:54:53.597Z,2.30
2018-04-13T13:57:21.162Z,1.43
2018-04-13T13:59:49.553Z,1.60
2018-04-13T14:02:17.872Z,5.40
2018-04-13T14:04:45.562Z,8.50
2018-04-13T14:07:13.123Z,7.70
2018-04-13T14:09:40.747Z,8.87
2018-04-13T14:12:08.297Z,7.97
2018-04-13T14:14:35.929Z,7.63
2018-04-13T14:17:04.312Z,6.53
2018-04-13T14:19:31.873Z,5.40
2018-04-13T14:21:59.948Z,4.77
2018-04-13T14:24:27.545Z,5.63
2018-04-13T14:26:55.101Z,4.50
2018-04-13T14:29:22.676Z,4.60
2018-04-13T14:31:50.239Z,4.40
2018-04-13T14:34:17.806Z,4.33
2018-04-13T14:36:45.468Z,4.00
2018-04-13T14:39:13.015Z,4.83
2018-04-13T14:41:40.619Z,4.20
2018-04-13T14:44:08.232Z,3.70
2018-04-13T14:46:35.956Z,4.80
2018-04-13T14:49:03.547Z,3.97
2018-04-13T14:51:31.103Z,3.50
2018-04-13T14:54:00.678Z,4.60
2018-04-13T14:56:28.245Z,5.00
2018-04-13T14:58:56.972Z,4.43
2018-04-13T15:01:26.350Z,4.73
2018-04-13T15:03:54.722Z,5.37
2018-04-13T15:06:22.717Z,5.20
2018-04-13T15:08:50.263Z,5.13
2018-04-13T15:11:17.842Z,5.03
2018-04-13T15:13:46.614Z,5.27
2018-04-13T15:16:14.185Z,6.03
2018-04-13T15:18:41.726Z,5.10
2018-04-13T15:21:09.316Z,5.93
2018-04-13T15:23:37.763Z,5.70
2018-04-13T15:26:05.353Z,6.03
2018-04-13T15:28:33.723Z,6.60
2018-04-13T15:31:02.487Z,5.27
2018-04-13T15:33:30.025Z,5.73
2018-04-13T15:35:57.707Z,6.80
2018-04-13T15:38:26.133Z,5.87
2018-04-13T15:40:53.721Z,6.17
2018-04-13T15:43:21.327Z,6.27
2018-04-13T15:45:49.688Z,7.13
2018-04-13T15:48:17.253Z,6.70
2018-04-13T15:50:44.854Z,6.13
2018-04-13T15:53:13.389Z,8.40
2018-04-13T15:55:40.938Z,8.30
2018-04-13T15:58:08.612Z,6.33
2018-04-13T16:00:36.148Z,7.27
2018-04-13T16:03:03.746Z,8.13
2018-04-13T16:05:32.109Z,7.50
2018-04-13T16:08:00.538Z,6.43
2018-04-13T16:10:28.142Z,7.40
2018-04-13T16:12:55.677Z,6.70
2018-04-13T16:15:23.352Z,6.60
2018-04-13T16:17:50.931Z,6.30
2018-04-13T16:20:19.246Z,6.90
2018-04-13T16:22:47.818Z,6.90
2018-04-13T16:25:15.497Z,6.47
2018-04-13T16:27:43.073Z,7.60
2018-04-13T16:30:10.845Z,7.73
2018-04-13T16:32:38.412Z,6.63
2018-04-13T16:35:05.959Z,7.27
2018-04-13T16:37:33.983Z,6.47
2018-04-13T16:40:01.538Z,6.00
2018-04-13T16:42:29.093Z,5.90
2018-04-13T16:44:56.654Z,6.60
2018-04-13T16:47:24.203Z,5.90
2018-04-13T16:49:51.770Z,8.00
2018-04-13T16:52:19.367Z,6.97
2018-04-13T16:54:46.925Z,6.90
2018-04-13T16:57:14.570Z,7.10
2018-04-13T16:59:42.158Z,6.63
2018-04-13T17:02:09.710Z,6.70
2018-04-13T17:04:37.450Z,6.13
2018-04-13T17:07:05.001Z,7.20
2018-04-13T17:09:32.555Z,7.33
2018-04-13T17:12:00.174Z,6.73
2018-04-13T17:14:28.531Z,6.30
2018-04-13T17:16:56.499Z,6.47
2018-04-13T17:19:24.114Z,6.70
2018-04-13T17:21:51.689Z,7.17
2018-04-13T17:24:20.055Z,6.47
2018-04-13T17:26:47.596Z,8.00
2018-04-13T17:29:15.222Z,8.00
2018-04-13T17:31:43.594Z,7.30
2018-04-13T17:34:11.126Z,6.77
2018-04-13T17:36:38.731Z,6.93
2018-04-13T17:39:07.079Z,7.47
2018-04-13T17:41:34.768Z,6.93
2018-04-13T17:44:03.102Z,7.30
2018-04-13T17:46:31.601Z,6.40
2018-04-13T17:48:59.156Z,7.63
2018-04-13T17:51:26.870Z,7.27
2018-04-13T17:53:54.426Z,7.70
2018-04-13T17:56:22.458Z,8.10
2018-04-13T17:58:50.037Z,7.70
2018-04-13T18:01:18.398Z,7.70
2018-04-13T18:03:46.706Z,7.43
2018-04-13T18:06:14.255Z,7.97
2018-04-13T18:08:41.817Z,8.27
2018-04-13T18:11:09.393Z,7.87
2018-04-13T18:13:36.977Z,7.97
2018-04-13T18:16:04.519Z,8.70
2018-04-13T18:18:32.084Z,7.50
2018-04-13T18:20:59.736Z,7.00
2018-04-13T18:23:28.041Z,9.07
2018-04-13T18:25:55.580Z,7.10
2018-04-13T18:28:23.177Z,7.03
2018-04-13T18:30:51.527Z,8.20
2018-04-13T18:33:19.190Z,7.07
2018-04-13T18:35:46.764Z,7.70
2018-04-13T18:38:14.359Z,8.63
2018-04-13T18:40:41.910Z,7.40
2018-04-13T18:43:10.353Z,7.57
2018-04-13T18:45:37.994Z,7.57
2018-04-13T18:48:05.574Z,8.53
2018-04-13T18:50:33.193Z,9.40
2018-04-13T18:53:00.729Z,9.00
2018-04-13T18:55:28.272Z,8.10
2018-04-13T18:57:56.650Z,8.60
2018-04-13T19:00:24.268Z,9.27
2018-04-13T19:02:51.804Z,8.50
2018-04-13T19:05:19.408Z,8.07
2018-04-13T19:07:47.933Z,8.70
2018-04-13T19:10:15.494Z,10.87
2018-04-13T19:12:43.085Z,8.90
2018-04-13T19:15:10.652Z,7.60
2018-04-13T19:17:38.200Z,8.20
2018-04-13T19:20:05.861Z,8.10
2018-04-13T19:22:33.475Z,8.87
2018-04-13T19:25:01.041Z,10.23
2018-04-13T19:27:28.644Z,9.20
2018-04-13T19:29:56.187Z,8.00
2018-04-13T19:32:23.756Z,7.37
2018-04-13T19:34:51.403Z,7.43
2018-04-13T19:37:18.968Z,6.60
2018-04-13T19:39:46.579Z,7.63
2018-04-13T19:42:14.909Z,8.03
2018-04-13T19:44:42.501Z,8.47
2018-04-13T19:47:10.269Z,7.80
2018-04-13T19:49:38.034Z,7.70
2018-04-13T19:52:05.649Z,8.03
2018-04-13T19:54:33.267Z,8.17
2018-04-13T19:57:01.622Z,9.10
2018-04-13T19:59:29.963Z,9.00
2018-04-13T20:01:57.583Z,9.50
2018-04-13T20:04:25.745Z,8.60
2018-04-13T20:06:53.969Z,8.83
2018-04-13T20:09:22.221Z,8.70
2018-04-13T20:11:49.799Z,9.50
2018-04-13T20:14:24.370Z,8.70
2018-04-13T20:16:53.095Z,8.40
2018-04-13T20:19:20.672Z,8.50
2018-04-13T20:21:48.344Z,9.03
2018-04-13T20:24:15.893Z,10.83
2018-04-13T20:26:43.505Z,8.37
2018-04-13T20:29:11.924Z,8.53
2018-04-13T20:31:39.477Z,9.03
2018-04-13T20:34:07.026Z,7.57
2018-04-13T20:36:35.425Z,8.00
2018-04-13T20:39:03.956Z,8.37
2018-04-13T20:41:32.707Z,8.60
2018-04-13T20:44:00.378Z,8.00
2018-04-13T20:46:28.074Z,9.40
2018-04-13T20:48:55.639Z,9.63
2018-04-13T20:51:23.247Z,8.47
2018-04-13T20:53:50.873Z,8.30
2018-04-13T20:56:18.457Z,6.23
2018-04-13T20:58:46.121Z,5.50
2018-04-13T21:01:13.791Z,7.03
2018-04-13T21:03:41.382Z,5.57
2018-04-13T21:06:09.747Z,5.60
2018-04-13T21:08:38.152Z,5.63
2018-04-13T21:11:05.747Z,5.17
2018-04-13T21:13:34.409Z,6.20
2018-04-13T21:16:01.991Z,6.20
2018-04-13T21:18:29.546Z,6.30
2018-04-13T21:20:57.170Z,5.60
2018-04-13T21:23:24.801Z,6.47
2018-04-13T21:25:53.179Z,7.47
2018-04-13T21:28:21.494Z,6.73
2018-04-13T21:30:49.080Z,6.80
2018-04-13T21:33:17.128Z,6.43
2018-04-13T21:35:44.684Z,6.30
2018-04-13T21:38:12.239Z,6.03
2018-04-13T21:40:39.833Z,6.10
2018-04-13T21:43:07.411Z,6.70
2018-04-13T21:45:34.992Z,7.40
2018-04-13T21:48:03.317Z,6.40
2018-04-13T21:50:30.904Z,6.63
2018-04-13T21:52:58.500Z,5.40
2018-04-13T21:55:26.048Z,5.87
2018-04-13T21:57:53.639Z,6.27
2018-04-13T22:00:21.218Z,6.40
2018-04-13T22:02:48.814Z,6.50
2018-04-13T22:05:17.127Z,6.53
2018-04-13T22:07:44.804Z,5.63
2018-04-13T22:10:12.385Z,5.47
2018-04-13T22:12:51.878Z,6.13
2018-04-13T22:15:26.170Z,6.57
2018-04-13T22:17:54.550Z,7.50
2018-04-13T22:20:22.106Z,7.97
2018-04-13T22:22:49.663Z,7.77
2018-04-13T22:25:18.005Z,7.80
2018-04-13T22:27:45.559Z,8.10
2018-04-13T22:30:13.224Z,8.00
2018-04-13T22:32:41.729Z,8.20
2018-04-13T22:35:10.363Z,7.50
2018-04-13T22:37:37.911Z,7.67
2018-04-13T22:40:06.005Z,11.90
2018-04-13T22:42:33.598Z,12.80
2018-04-13T22:45:01.954Z,13.30
2018-04-13T22:47:29.557Z,15.10
2018-04-13T22:49:57.112Z,16.60
2018-04-13T22:52:24.695Z,16.47
2018-04-13T22:54:52.309Z,17.17
2018-04-13T22:57:20.670Z,17.20
2018-04-13T22:59:48.273Z,17.17
2018-04-13T23:02:15.846Z,18.60
2018-04-13T23:04:44.943Z,19.33
2018-04-13T23:07:12.484Z,19.33
2018-04-13T23:09:40.422Z,19.10
2018-04-13T23:12:08.035Z,20.67
2018-04-13T23:14:36.040Z,20.50
2018-04-13T23:17:05.075Z,21.83
2018-04-13T23:19:32.627Z,22.80
2018-04-13T23:22:00.262Z,20.60
2018-04-13T23:24:27.807Z,21.83
2018-04-13T23:26:55.353Z,22.00
2018-04-13T23:29:22.936Z,24.43
2018-04-13T23:31:51.257Z,22.90
2018-04-13T23:34:18.906Z,23.90
2018-04-13T23:36:46.486Z,26.10
2018-04-13T23:39:14.813Z,30.87
2018-04-13T23:41:42.434Z,30.07
2018-04-13T23:44:10.003Z,31.20
2018-04-13T23:46:37.641Z,31.20
2018-04-13T23:49:05.633Z,31.87
2018-04-13T23:51:33.184Z,31.87
2018-04-13T23:54:00.827Z,32.03
2018-04-13T23:56:28.396Z,32.43
2018-04-13T23:58:56.097Z,28.40
